Aurora, MO

8:13 AM CDT on July 01, 2015 (GMT -0500)
APRSWXNET | | Change Station
CLOSE
Current Station
Personal Weather Station
Location: Verona, MO
Elevation: 1476 ft
Nearby Weather Stations

Elev 1476 ft 36.92 °N, 93.83 °W | Updated 27 minutes ago

Rain
Rain
75 °F
Feels Like 72 °F
N
0
Wind Variable Wind from WSW
Gusts 1.0 mph

Today
High -- | Low -- °F
--% Chance of Precip.
Yesterday
High -- | Low -- °F
Precip. -- in
5:58 AM 8:38 PM
Full, 100% visible
Pressure 29.96 in
Visibility 10.0 miles
Clouds Scattered Clouds 1800 ft
Overcast 12000 ft
Heat Index 72 °F
Dew Point 75 °F
Humidity 100%
Rainfall in
Snow Depth Not available.
UV 0 out of 12
Pollen .50 out of 12
Air Quality Not available.
Flu Activity Not available.
METAR KHFJ 011255Z AUTO 05003KT 10SM SCT018 OVC120 23/22 A2996 RMK AO2

More Conditions Fewer Conditions

Pressure 29.96 in
Visibility 10.0 miles
Clouds Scattered Clouds 1800 ft
Overcast 12000 ft
Heat Index 72 °F
Dew Point 75 °F
Humidity 100%
Rainfall in
Snow Depth Not available.
UV 0 out of 12
Pollen .50 out of 12
Air Quality Not available.
Flu Activity Not available.
METAR KHFJ 011255Z AUTO 05003KT 10SM SCT018 OVC120 23/22 A2996 RMK AO2

More Conditions Fewer Conditions

10-Day Weather Forecast

×

Almanac

Astronomy

Jul. 01, 2015 Rise Set
Actual Time
Civil Twilight
Nautical Twilight
Astronomical Twilight
Moon
Length of Visible Light
Length of Day
Tomorrow will be .
, % of the Moon is Illuminated

Today's Extremes

State Highs State Lows

Community

WunderPhotos

Upload Photos

1,834,188 photos uploaded!

WunderBlogs® & News

Nearby

Air Quality

  Air Quality AQ Index Pollutant
Not available.

Snow Depth

Station Depth Elevation

Earthquake Activity

City Distance Mag. Time & Date
Minimum magnitude displayed is 2.5.

Coastal Water Temperatures

Place Temperature

Stations

Nearby Weather Stations

Station Location Temp. Windchill Dew Point Humidity Wind Precip. Elev Updated Type